createdAt,value
2022-12-29T00:00:32.777Z,16.80
2022-12-29T00:03:21.272Z,13.50
2022-12-29T00:05:56.903Z,11.40
2022-12-29T00:08:41.057Z,12.80
2022-12-29T00:11:11.664Z,14.90
2022-12-29T00:13:59.541Z,10.50
2022-12-29T00:16:29.803Z,11.60
2022-12-29T00:18:58.292Z,11.10
2022-12-29T00:21:46.234Z,13.00
2022-12-29T00:24:26.836Z,11.20
2022-12-29T00:27:22.900Z,12.60
2022-12-29T00:30:10.408Z,13.10
2022-12-29T00:32:57.534Z,9.20
2022-12-29T00:35:41.039Z,11.10
2022-12-29T00:38:30.425Z,12.20
2022-12-29T00:41:17.494Z,9.10
2022-12-29T00:44:05.218Z,11.40
2022-12-29T00:46:35.696Z,15.90
2022-12-29T00:49:23.874Z,9.60
2022-12-29T00:51:52.816Z,10.70
2022-12-29T00:54:21.504Z,10.90
2022-12-29T00:56:52.144Z,9.80
2022-12-29T00:59:22.026Z,10.80
2022-12-29T01:01:51.561Z,10.50
2022-12-29T01:04:21.630Z,9.40
2022-12-29T01:06:51.730Z,8.60
2022-12-29T01:09:40.743Z,11.20
2022-12-29T01:12:11.543Z,10.70
2022-12-29T01:14:40.441Z,8.80
2022-12-29T01:17:08.796Z,8.30
2022-12-29T01:19:37.219Z,11.30
2022-12-29T01:22:05.555Z,8.50
2022-12-29T01:24:33.861Z,13.30
2022-12-29T01:27:02.899Z,13.10
2022-12-29T01:29:31.738Z,10.10
2022-12-29T01:32:00.086Z,10.80
2022-12-29T01:34:29.013Z,10.60
2022-12-29T01:36:57.498Z,9.60
2022-12-29T01:39:26.762Z,9.80
2022-12-29T01:41:55.235Z,9.90
2022-12-29T01:44:45.422Z,10.00
2022-12-29T01:47:36.278Z,8.50
2022-12-29T01:50:20.370Z,9.50
2022-12-29T01:53:03.939Z,8.50
2022-12-29T01:55:35.913Z,11.70
2022-12-29T01:58:07.601Z,10.20
2022-12-29T02:00:36.726Z,9.20
2022-12-29T02:03:07.473Z,11.40
2022-12-29T02:05:44.952Z,9.50
2022-12-29T02:08:14.922Z,11.00
2022-12-29T02:10:45.637Z,13.50
2022-12-29T02:13:18.455Z,9.50
2022-12-29T02:15:49.760Z,10.50
2022-12-29T02:18:33.763Z,11.30
2022-12-29T02:21:24.214Z,13.30
2022-12-29T02:24:30.528Z,10.10
2022-12-29T02:27:34.415Z,8.30
2022-12-29T02:30:13.350Z,10.80
2022-12-29T02:33:25.460Z,10.80
2022-12-29T02:36:10.829Z,10.30
2022-12-29T02:39:06.974Z,13.20
2022-12-29T02:41:57.983Z,10.00
2022-12-29T02:44:42.546Z,11.00
2022-12-29T02:47:16.201Z,9.70
2022-12-29T02:50:02.824Z,9.60
2022-12-29T02:52:43.888Z,10.00
2022-12-29T02:55:13.035Z,8.80
2022-12-29T02:57:43.182Z,10.00
2022-12-29T03:00:18.346Z,7.30
2022-12-29T03:03:14.904Z,10.40
2022-12-29T03:06:07.796Z,9.50
2022-12-29T03:08:42.369Z,9.50
2022-12-29T03:11:32.370Z,12.60
2022-12-29T03:14:34.839Z,6.40
2022-12-29T03:17:29.454Z,10.50
2022-12-29T03:20:09.451Z,7.50
2022-12-29T03:22:44.956Z,7.60
2022-12-29T03:25:35.058Z,8.00
2022-12-29T03:28:11.001Z,9.70
2022-12-29T03:30:45.109Z,8.90
2022-12-29T03:33:18.949Z,10.30
2022-12-29T03:35:50.605Z,9.90
2022-12-29T03:38:57.999Z,10.30
2022-12-29T03:41:32.393Z,10.40
2022-12-29T03:46:29.694Z,8.70
2022-12-29T03:48:58.370Z,8.30
2022-12-29T03:51:26.754Z,9.30
2022-12-29T03:53:55.968Z,10.00
2022-12-29T03:56:24.346Z,9.50
2022-12-29T03:58:52.839Z,9.70
2022-12-29T04:01:32.153Z,9.40
2022-12-29T04:04:00.623Z,7.60
2022-12-29T04:06:29.091Z,11.80
2022-12-29T04:09:04.183Z,6.70
2022-12-29T04:11:36.038Z,10.30
2022-12-29T04:14:05.961Z,9.30
2022-12-29T04:16:37.022Z,9.00
2022-12-29T04:19:08.647Z,8.50
2022-12-29T04:21:38.239Z,10.00
2022-12-29T04:24:07.791Z,14.00
2022-12-29T04:26:42.784Z,7.20
2022-12-29T04:29:31.307Z,10.70
2022-12-29T04:32:05.947Z,6.90
2022-12-29T04:34:36.586Z,9.60
2022-12-29T04:37:04.910Z,7.60
2022-12-29T04:39:35.671Z,7.10
2022-12-29T04:42:05.158Z,8.50
2022-12-29T04:44:35.319Z,10.60
2022-12-29T04:47:14.468Z,7.70
2022-12-29T04:50:15.310Z,7.50
2022-12-29T04:52:55.635Z,9.90
2022-12-29T04:55:24.164Z,8.10
2022-12-29T04:57:52.556Z,9.30
2022-12-29T05:00:22.038Z,5.90
2022-12-29T05:02:50.622Z,10.90
2022-12-29T05:05:20.026Z,8.40
2022-12-29T05:07:51.645Z,6.90
2022-12-29T05:10:20.022Z,9.40
2022-12-29T05:12:50.353Z,10.50
2022-12-29T05:15:19.713Z,9.40
2022-12-29T05:17:48.143Z,7.20
2022-12-29T05:20:16.939Z,6.00
2022-12-29T05:22:46.169Z,6.70
2022-12-29T05:25:14.599Z,8.60
2022-12-29T05:28:09.995Z,14.60
2022-12-29T05:30:45.676Z,10.00
2022-12-29T05:33:14.216Z,9.50
2022-12-29T05:35:42.871Z,8.50
2022-12-29T05:38:11.642Z,8.80
2022-12-29T05:40:40.268Z,7.70
2022-12-29T05:43:23.299Z,9.70
2022-12-29T05:46:10.252Z,7.80
2022-12-29T05:49:05.668Z,10.50
2022-12-29T05:51:49.450Z,6.90
2022-12-29T05:54:18.406Z,9.80
2022-12-29T05:56:47.380Z,10.50
2022-12-29T05:59:15.906Z,8.20
2022-12-29T06:01:44.576Z,8.80
2022-12-29T06:04:14.227Z,10.40
2022-12-29T06:06:43.750Z,7.40
2022-12-29T06:09:20.121Z,5.90
2022-12-29T06:11:48.730Z,10.10
2022-12-29T06:14:17.142Z,6.80
2022-12-29T06:16:46.645Z,7.00
2022-12-29T06:19:15.563Z,13.00
2022-12-29T06:21:43.881Z,14.60
2022-12-29T06:24:12.607Z,10.30
2022-12-29T06:26:41.356Z,9.40
2022-12-29T06:29:09.844Z,10.50
2022-12-29T06:31:38.551Z,8.90
2022-12-29T06:34:08.703Z,13.30
2022-12-29T06:36:38.825Z,10.90
2022-12-29T06:39:07.517Z,9.90
2022-12-29T06:41:36.507Z,13.30
2022-12-29T06:44:24.433Z,9.00
2022-12-29T06:46:59.371Z,12.30
2022-12-29T06:49:30.096Z,10.00
2022-12-29T06:52:03.360Z,10.90
2022-12-29T06:57:04.033Z,9.20
2022-12-29T06:59:32.800Z,7.40
2022-12-29T07:02:03.535Z,8.10
2022-12-29T07:04:33.441Z,11.10
2022-12-29T07:07:02.010Z,10.90
2022-12-29T07:09:30.417Z,10.60
2022-12-29T07:11:58.827Z,8.00
2022-12-29T07:14:27.585Z,8.50
2022-12-29T07:16:56.184Z,7.90
2022-12-29T07:19:27.323Z,11.40
2022-12-29T07:21:56.590Z,10.40
2022-12-29T07:24:26.922Z,10.70
2022-12-29T07:26:55.478Z,9.30
2022-12-29T07:29:24.241Z,8.30
2022-12-29T07:31:52.811Z,5.80
2022-12-29T07:34:21.570Z,8.30
2022-12-29T07:36:51.542Z,7.80
2022-12-29T07:39:20.056Z,11.30
2022-12-29T07:41:48.576Z,6.60
2022-12-29T07:44:20.851Z,6.90
2022-12-29T07:47:00.068Z,9.10
2022-12-29T07:49:29.207Z,8.20
2022-12-29T07:51:57.811Z,9.20
2022-12-29T07:54:26.317Z,9.40
2022-12-29T07:56:55.396Z,8.70
2022-12-29T07:59:24.032Z,8.40
2022-12-29T08:01:54.739Z,9.70
2022-12-29T08:04:23.191Z,9.20
2022-12-29T08:06:53.011Z,10.00
2022-12-29T08:09:25.451Z,23.70
2022-12-29T08:11:55.519Z,11.30
2022-12-29T08:14:24.026Z,11.20
2022-12-29T08:16:52.482Z,8.80
2022-12-29T08:19:29.732Z,10.50
2022-12-29T08:21:58.182Z,7.90
2022-12-29T08:24:26.743Z,9.40
2022-12-29T08:26:56.333Z,10.60
2022-12-29T08:29:30.685Z,8.90
2022-12-29T08:31:59.218Z,9.50
2022-12-29T08:34:27.588Z,9.00
2022-12-29T08:36:55.974Z,10.50
2022-12-29T08:39:24.461Z,12.00
2022-12-29T08:41:53.029Z,9.50
2022-12-29T08:44:22.547Z,15.20
2022-12-29T08:46:51.252Z,10.70
2022-12-29T08:49:19.693Z,11.40
2022-12-29T08:51:48.264Z,10.70
2022-12-29T08:54:19.526Z,8.70
2022-12-29T08:56:48.086Z,11.00
2022-12-29T08:59:18.465Z,12.80
2022-12-29T09:01:49.153Z,12.30
2022-12-29T09:04:18.504Z,12.00
2022-12-29T09:06:47.371Z,11.80
2022-12-29T09:09:16.269Z,11.80
2022-12-29T09:11:45.958Z,10.60
2022-12-29T09:14:15.676Z,12.00
2022-12-29T09:17:02.680Z,11.70
2022-12-29T09:19:32.564Z,12.30
2022-12-29T09:22:01.073Z,11.10
2022-12-29T09:24:29.758Z,10.50
2022-12-29T09:26:58.582Z,13.90
2022-12-29T09:29:27.294Z,11.50
2022-12-29T09:31:56.816Z,10.10
2022-12-29T09:34:25.251Z,11.70
2022-12-29T09:36:57.521Z,15.60
2022-12-29T09:39:27.079Z,13.00
2022-12-29T09:42:21.270Z,10.60
2022-12-29T09:44:56.758Z,12.70
2022-12-29T09:47:27.145Z,10.30
2022-12-29T09:50:14.870Z,11.60
2022-12-29T09:52:59.626Z,11.00
2022-12-29T09:55:42.486Z,19.20
2022-12-29T09:58:17.169Z,13.80
2022-12-29T10:01:05.406Z,10.70
2022-12-29T10:03:52.229Z,13.50
2022-12-29T10:06:32.900Z,13.00
2022-12-29T10:09:30.359Z,17.40
2022-12-29T10:12:22.662Z,12.40
2022-12-29T10:15:32.803Z,14.30
2022-12-29T10:18:20.289Z,29.50
2022-12-29T10:21:01.524Z,17.20
2022-12-29T10:23:42.189Z,14.10
2022-12-29T10:26:17.165Z,13.50
2022-12-29T10:28:56.817Z,22.30
2022-12-29T10:31:37.069Z,28.20
2022-12-29T10:34:21.171Z,20.00
2022-12-29T10:37:01.623Z,14.90
2022-12-29T10:40:04.423Z,17.00
2022-12-29T10:42:48.808Z,15.10
2022-12-29T10:45:24.799Z,15.10
2022-12-29T10:48:13.679Z,12.30
2022-12-29T10:51:02.113Z,15.30
2022-12-29T10:53:46.643Z,14.10
2022-12-29T10:56:49.004Z,14.70
2022-12-29T10:59:28.282Z,14.50
2022-12-29T11:02:11.945Z,16.00
2022-12-29T11:05:18.174Z,10.90
2022-12-29T11:07:56.836Z,15.80
2022-12-29T11:14:09.580Z,15.50
2022-12-29T11:17:06.654Z,18.70
2022-12-29T11:20:01.826Z,13.50
2022-12-29T11:22:36.931Z,15.80
2022-12-29T11:25:19.852Z,12.40
2022-12-29T11:28:21.547Z,14.80
2022-12-29T11:31:07.528Z,12.70
2022-12-29T11:36:52.293Z,15.20
2022-12-29T11:39:53.328Z,12.20
2022-12-29T11:42:41.458Z,9.70
2022-12-29T11:45:37.579Z,14.80
2022-12-29T11:48:25.245Z,11.60
2022-12-29T11:51:08.266Z,7.50
2022-12-29T11:53:52.321Z,8.90
2022-12-29T11:56:42.143Z,9.90
2022-12-29T11:59:39.737Z,9.10
2022-12-29T12:02:37.214Z,10.30
2022-12-29T12:05:38.956Z,10.70
2022-12-29T12:08:59.478Z,10.70
2022-12-29T12:12:00.160Z,13.20
2022-12-29T12:18:45.178Z,13.60
2022-12-29T12:21:49.410Z,13.30
2022-12-29T12:25:41.130Z,13.50
2022-12-29T12:28:45.905Z,12.10
2022-12-29T12:31:47.190Z,13.80
2022-12-29T12:34:58.770Z,10.90
2022-12-29T12:37:54.732Z,10.40
2022-12-29T12:40:53.979Z,9.40
2022-12-29T12:43:42.260Z,10.50
2022-12-29T12:47:14.220Z,11.40
2022-12-29T12:50:31.348Z,9.80
2022-12-29T12:53:42.145Z,9.10
2022-12-29T12:56:45.833Z,9.60
2022-12-29T12:59:46.763Z,12.40
2022-12-29T13:02:34.590Z,11.30
2022-12-29T13:05:27.327Z,15.50
2022-12-29T13:08:39.600Z,14.10
2022-12-29T13:14:14.242Z,17.80
2022-12-29T13:17:13.391Z,17.00
2022-12-29T13:20:19.369Z,22.80
2022-12-29T13:23:17.224Z,16.90
2022-12-29T13:27:56.937Z,11.60
2022-12-29T13:36:03.409Z,12.20
2022-12-29T13:42:55.488Z,9.70
2022-12-29T13:45:49.030Z,8.60
2022-12-29T13:52:47.284Z,9.90
2022-12-29T13:56:01.234Z,9.70
2022-12-29T13:58:55.242Z,11.60
2022-12-29T14:02:46.983Z,16.60
2022-12-29T14:06:17.838Z,15.20
2022-12-29T14:10:50.940Z,13.00
2022-12-29T14:13:54.840Z,14.10
2022-12-29T14:16:56.133Z,11.60
2022-12-29T14:23:49.466Z,12.90
2022-12-29T14:26:48.469Z,13.80
2022-12-29T14:29:35.239Z,15.40
2022-12-29T14:35:49.352Z,12.10
2022-12-29T14:38:32.522Z,13.80
2022-12-29T14:42:06.243Z,15.80
2022-12-29T14:45:06.988Z,17.40
2022-12-29T14:47:58.700Z,13.30
2022-12-29T14:50:58.117Z,13.80
2022-12-29T14:54:27.959Z,19.80
2022-12-29T14:57:13.890Z,16.20
2022-12-29T15:00:09.253Z,17.20
2022-12-29T15:02:48.005Z,19.10
2022-12-29T15:05:53.239Z,17.40
2022-12-29T15:08:38.516Z,18.50
2022-12-29T15:11:41.505Z,13.00
2022-12-29T15:14:37.416Z,14.90
2022-12-29T15:17:34.083Z,15.50
2022-12-29T15:20:36.013Z,20.10
2022-12-29T15:23:13.111Z,18.90
2022-12-29T15:25:58.113Z,17.30
2022-12-29T15:28:29.414Z,18.20
2022-12-29T15:31:13.929Z,20.60
2022-12-29T15:33:48.635Z,20.30
2022-12-29T15:36:24.910Z,19.80
2022-12-29T15:38:54.720Z,21.50
2022-12-29T15:41:28.216Z,22.00
2022-12-29T15:44:18.430Z,22.90
2022-12-29T15:46:48.621Z,19.80
2022-12-29T15:49:17.617Z,22.20
2022-12-29T15:51:46.801Z,23.90
2022-12-29T15:54:22.148Z,23.00
2022-12-29T15:56:52.418Z,24.00
2022-12-29T15:59:31.449Z,19.30
2022-12-29T16:02:07.162Z,22.00
2022-12-29T16:05:15.563Z,22.90
2022-12-29T16:07:41.321Z,22.90
2022-12-29T16:10:43.961Z,24.20
2022-12-29T16:13:34.197Z,18.80
2022-12-29T16:16:22.165Z,26.70
2022-12-29T16:18:57.325Z,22.10
2022-12-29T16:21:36.273Z,21.50
2022-12-29T16:24:15.134Z,23.50
2022-12-29T16:26:54.128Z,24.10
2022-12-29T16:29:23.202Z,27.20
2022-12-29T16:32:01.916Z,23.30
2022-12-29T16:34:53.379Z,29.00
2022-12-29T16:37:32.138Z,30.90
2022-12-29T16:40:18.763Z,24.20
2022-12-29T16:42:52.337Z,31.90
2022-12-29T16:45:46.671Z,23.70
2022-12-29T16:48:14.977Z,26.20
2022-12-29T16:50:45.169Z,32.40
2022-12-29T16:53:19.574Z,42.40
2022-12-29T16:55:52.841Z,33.70
2022-12-29T16:58:27.079Z,40.40
2022-12-29T17:00:59.747Z,33.50
2022-12-29T17:03:48.737Z,32.20
2022-12-29T17:06:27.226Z,31.70
2022-12-29T17:08:56.225Z,30.70
2022-12-29T17:11:58.369Z,34.00
2022-12-29T17:14:56.139Z,47.80
2022-12-29T17:17:37.814Z,31.50
2022-12-29T17:20:24.879Z,31.70
2022-12-29T17:22:54.348Z,25.10
2022-12-29T17:25:42.426Z,23.30
2022-12-29T17:28:30.334Z,25.50
2022-12-29T17:31:05.859Z,25.10
2022-12-29T17:33:44.296Z,29.60
2022-12-29T17:36:12.919Z,33.80
2022-12-29T17:38:43.546Z,36.80
2022-12-29T17:41:17.355Z,30.70
2022-12-29T17:43:46.092Z,34.60
2022-12-29T17:46:14.497Z,38.30
2022-12-29T17:48:46.721Z,44.40
2022-12-29T17:51:22.511Z,36.20
2022-12-29T17:53:53.690Z,37.70
2022-12-29T17:56:22.318Z,33.60
2022-12-29T17:58:51.436Z,36.90
2022-12-29T18:01:22.790Z,31.50
2022-12-29T18:03:54.857Z,38.10
2022-12-29T18:06:24.504Z,32.00
2022-12-29T18:08:52.956Z,33.80
2022-12-29T18:11:33.058Z,33.40
2022-12-29T18:14:15.082Z,32.30
2022-12-29T18:16:44.459Z,38.70
2022-12-29T18:19:13.163Z,49.60
2022-12-29T18:21:48.300Z,56.70
2022-12-29T18:26:45.281Z,46.40
2022-12-29T18:29:21.372Z,31.20
2022-12-29T18:31:58.217Z,50.80
2022-12-29T18:34:29.861Z,42.70
2022-12-29T18:37:00.041Z,34.40
2022-12-29T18:39:31.838Z,34.60
2022-12-29T18:42:00.433Z,29.90
2022-12-29T18:44:31.553Z,28.90
2022-12-29T18:47:01.783Z,30.90
2022-12-29T18:49:30.362Z,28.60
2022-12-29T18:51:58.959Z,27.40
2022-12-29T18:54:34.113Z,26.80
2022-12-29T18:57:05.949Z,25.20
2022-12-29T18:59:35.348Z,28.20
2022-12-29T19:02:06.301Z,25.00
2022-12-29T19:04:34.747Z,21.40
2022-12-29T19:07:04.293Z,26.20
2022-12-29T19:09:38.744Z,29.10
2022-12-29T19:12:08.545Z,29.50
2022-12-29T19:14:39.463Z,23.00
2022-12-29T19:20:32.224Z,60.90
2022-12-29T19:23:04.333Z,25.70
2022-12-29T19:25:34.251Z,25.00
2022-12-29T19:28:10.560Z,23.30
2022-12-29T19:30:42.512Z,25.20
2022-12-29T19:33:11.076Z,25.60
2022-12-29T19:35:41.732Z,24.60
2022-12-29T19:38:15.024Z,24.10
2022-12-29T19:40:50.607Z,27.00
2022-12-29T19:43:20.289Z,25.00
2022-12-29T19:46:01.805Z,27.20
2022-12-29T19:48:33.601Z,27.00
2022-12-29T19:51:17.505Z,28.70
2022-12-29T19:53:47.728Z,23.60
2022-12-29T19:56:22.224Z,25.40
2022-12-29T19:58:52.017Z,23.00
2022-12-29T20:01:23.185Z,26.80
2022-12-29T20:03:52.778Z,25.80
2022-12-29T20:06:24.890Z,24.50
2022-12-29T20:08:55.927Z,25.10
2022-12-29T20:11:30.174Z,24.70
2022-12-29T20:14:00.145Z,23.50
2022-12-29T20:17:11.351Z,20.90
2022-12-29T20:19:47.218Z,20.50
2022-12-29T20:22:40.074Z,21.00
2022-12-29T20:25:43.608Z,22.80
2022-12-29T20:27:58.500Z,23.10
2022-12-29T20:30:27.884Z,25.50
2022-12-29T20:32:56.255Z,23.90
2022-12-29T20:35:28.417Z,23.30
2022-12-29T20:37:57.863Z,20.40
2022-12-29T20:40:28.802Z,21.40
2022-12-29T20:42:57.512Z,22.50
2022-12-29T20:45:26.672Z,22.80
2022-12-29T20:47:57.534Z,24.90
2022-12-29T20:50:26.887Z,21.10
2022-12-29T20:52:59.630Z,21.30
2022-12-29T20:55:28.964Z,22.10
2022-12-29T20:58:23.282Z,21.80
2022-12-29T21:00:47.417Z,23.20
2022-12-29T21:03:15.958Z,20.10
2022-12-29T21:05:44.470Z,22.40
2022-12-29T21:08:12.915Z,19.50
2022-12-29T21:10:51.529Z,19.40
2022-12-29T21:13:22.993Z,17.10
2022-12-29T21:16:00.629Z,21.60
2022-12-29T21:18:30.223Z,19.50
2022-12-29T21:21:09.901Z,22.10
2022-12-29T21:23:40.268Z,18.70
2022-12-29T21:26:10.422Z,19.70
2022-12-29T21:28:40.218Z,24.10
2022-12-29T21:31:33.519Z,23.40
2022-12-29T21:34:05.449Z,21.00
2022-12-29T21:36:35.969Z,18.50
2022-12-29T21:39:04.747Z,22.90
2022-12-29T21:41:35.373Z,19.00
2022-12-29T21:44:23.400Z,20.50
2022-12-29T21:46:51.838Z,18.20
2022-12-29T21:49:22.244Z,19.80
2022-12-29T21:51:53.859Z,17.80
2022-12-29T21:54:49.746Z,21.60
2022-12-29T21:57:38.813Z,19.20
2022-12-29T22:00:28.668Z,16.80
2022-12-29T22:03:22.748Z,18.50
2022-12-29T22:06:11.692Z,20.90
2022-12-29T22:08:59.386Z,19.30
2022-12-29T22:11:46.618Z,20.30
2022-12-29T22:14:14.944Z,20.60
2022-12-29T22:16:43.504Z,20.00
2022-12-29T22:19:11.875Z,15.10
2022-12-29T22:21:41.403Z,17.40
2022-12-29T22:24:10.011Z,19.10
2022-12-29T22:26:39.014Z,18.80
2022-12-29T22:29:08.076Z,18.10
2022-12-29T22:31:39.143Z,18.30
2022-12-29T22:34:07.605Z,19.70
2022-12-29T22:36:36.110Z,18.20
2022-12-29T22:39:04.494Z,16.50
2022-12-29T22:41:33.834Z,19.90
2022-12-29T22:44:07.281Z,19.40
2022-12-29T22:46:35.789Z,24.00
2022-12-29T22:49:04.157Z,19.50
2022-12-29T22:51:32.580Z,18.70
2022-12-29T22:54:01.638Z,18.30
2022-12-29T22:56:30.219Z,15.10
2022-12-29T22:58:58.876Z,13.60
2022-12-29T23:01:27.409Z,21.00
2022-12-29T23:04:05.977Z,15.10
2022-12-29T23:06:41.120Z,16.60
2022-12-29T23:09:16.731Z,14.50
2022-12-29T23:11:47.471Z,16.80
2022-12-29T23:14:19.291Z,14.80
2022-12-29T23:16:47.903Z,12.40
2022-12-29T23:19:21.104Z,12.70
2022-12-29T23:21:50.849Z,16.00
2022-12-29T23:24:19.731Z,13.30
2022-12-29T23:26:48.841Z,15.00
2022-12-29T23:29:27.625Z,11.70
2022-12-29T23:31:58.549Z,12.90
2022-12-29T23:34:27.037Z,14.40
2022-12-29T23:36:55.294Z,11.50
2022-12-29T23:39:24.987Z,12.90
2022-12-29T23:41:53.499Z,10.60
2022-12-29T23:44:24.262Z,12.20
2022-12-29T23:46:52.875Z,14.30
2022-12-29T23:49:21.459Z,13.50
2022-12-29T23:51:49.754Z,16.90
2022-12-29T23:54:18.115Z,16.00
2022-12-29T23:56:47.671Z,16.70
2022-12-29T23:59:16.245Z,17.20
